sensor_id;sensor_type;location;lat;lon;timestamp;P1;durP1;ratioP1;P2;durP2;ratioP2
34317;SDS011;20582;52.196;20.952;2024-01-27T00:00:23;23.63;;;9.77;;
34317;SDS011;20582;52.196;20.952;2024-01-27T00:02:49;19.42;;;8.18;;
34317;SDS011;20582;52.196;20.952;2024-01-27T00:05:15;19.50;;;7.85;;
34317;SDS011;20582;52.196;20.952;2024-01-27T00:07:41;21.58;;;7.60;;
34317;SDS011;20582;52.196;20.952;2024-01-27T00:10:07;15.27;;;6.18;;
34317;SDS011;20582;52.196;20.952;2024-01-27T00:12:33;13.63;;;4.63;;
34317;SDS011;20582;52.196;20.952;2024-01-27T00:14:59;12.38;;;3.83;;
34317;SDS011;20582;52.196;20.952;2024-01-27T00:17:25;14.55;;;3.70;;
34317;SDS011;20582;52.196;20.952;2024-01-27T00:19:52;10.27;;;3.22;;
34317;SDS011;20582;52.196;20.952;2024-01-27T00:22:18;15.32;;;3.17;;
34317;SDS011;20582;52.196;20.952;2024-01-27T00:24:46;8.35;;;2.60;;
34317;SDS011;20582;52.196;20.952;2024-01-27T00:27:12;13.00;;;2.90;;
34317;SDS011;20582;52.196;20.952;2024-01-27T00:29:38;8.20;;;2.45;;
34317;SDS011;20582;52.196;20.952;2024-01-27T00:32:04;8.77;;;2.45;;
34317;SDS011;20582;52.196;20.952;2024-01-27T00:34:30;13.77;;;3.00;;
34317;SDS011;20582;52.196;20.952;2024-01-27T00:36:55;15.18;;;2.80;;
34317;SDS011;20582;52.196;20.952;2024-01-27T00:39:22;14.30;;;3.10;;
34317;SDS011;20582;52.196;20.952;2024-01-27T00:41:48;13.68;;;3.13;;
34317;SDS011;20582;52.196;20.952;2024-01-27T00:44:13;10.55;;;2.75;;
34317;SDS011;20582;52.196;20.952;2024-01-27T00:46:40;16.08;;;3.20;;
34317;SDS011;20582;52.196;20.952;2024-01-27T00:49:06;13.02;;;2.53;;
34317;SDS011;20582;52.196;20.952;2024-01-27T00:51:32;14.73;;;2.30;;
34317;SDS011;20582;52.196;20.952;2024-01-27T00:53:58;11.93;;;2.55;;
34317;SDS011;20582;52.196;20.952;2024-01-27T00:56:24;15.90;;;2.92;;
34317;SDS011;20582;52.196;20.952;2024-01-27T00:58:50;15.50;;;2.53;;
34317;SDS011;20582;52.196;20.952;2024-01-27T01:01:16;16.85;;;2.53;;
34317;SDS011;20582;52.196;20.952;2024-01-27T01:03:42;11.70;;;2.00;;
34317;SDS011;20582;52.196;20.952;2024-01-27T01:06:08;9.45;;;2.53;;
34317;SDS011;20582;52.196;20.952;2024-01-27T01:08:34;13.35;;;2.72;;
34317;SDS011;20582;52.196;20.952;2024-01-27T01:11:00;16.20;;;2.63;;
34317;SDS011;20582;52.196;20.952;2024-01-27T01:13:26;10.18;;;2.53;;
34317;SDS011;20582;52.196;20.952;2024-01-27T01:15:52;13.73;;;2.45;;
34317;SDS011;20582;52.196;20.952;2024-01-27T01:18:18;11.93;;;2.45;;
34317;SDS011;20582;52.196;20.952;2024-01-27T01:20:44;12.85;;;2.38;;
34317;SDS011;20582;52.196;20.952;2024-01-27T01:23:09;13.93;;;2.40;;
34317;SDS011;20582;52.196;20.952;2024-01-27T01:25:36;14.13;;;2.45;;
34317;SDS011;20582;52.196;20.952;2024-01-27T01:28:02;13.23;;;2.42;;
34317;SDS011;20582;52.196;20.952;2024-01-27T01:30:28;10.10;;;2.58;;
34317;SDS011;20582;52.196;20.952;2024-01-27T01:32:54;15.30;;;2.65;;
34317;SDS011;20582;52.196;20.952;2024-01-27T01:35:20;13.75;;;2.30;;
34317;SDS011;20582;52.196;20.952;2024-01-27T01:37:46;14.52;;;2.60;;
34317;SDS011;20582;52.196;20.952;2024-01-27T01:40:13;9.65;;;2.70;;
34317;SDS011;20582;52.196;20.952;2024-01-27T01:42:40;16.15;;;3.22;;
34317;SDS011;20582;52.196;20.952;2024-01-27T01:45:06;13.55;;;3.03;;
34317;SDS011;20582;52.196;20.952;2024-01-27T01:47:33;11.10;;;2.70;;
34317;SDS011;20582;52.196;20.952;2024-01-27T01:49:59;13.95;;;2.92;;
34317;SDS011;20582;52.196;20.952;2024-01-27T01:52:25;12.65;;;2.90;;
34317;SDS011;20582;52.196;20.952;2024-01-27T01:54:51;12.45;;;3.08;;
34317;SDS011;20582;52.196;20.952;2024-01-27T01:57:17;10.38;;;3.13;;
34317;SDS011;20582;52.196;20.952;2024-01-27T01:59:43;17.30;;;3.10;;
34317;SDS011;20582;52.196;20.952;2024-01-27T02:02:09;16.48;;;3.08;;
34317;SDS011;20582;52.196;20.952;2024-01-27T02:07:07;13.82;;;2.92;;
34317;SDS011;20582;52.196;20.952;2024-01-27T02:09:33;14.63;;;3.28;;
34317;SDS011;20582;52.196;20.952;2024-01-27T02:11:59;14.77;;;2.90;;
34317;SDS011;20582;52.196;20.952;2024-01-27T02:14:25;13.82;;;2.90;;
34317;SDS011;20582;52.196;20.952;2024-01-27T02:16:52;16.13;;;2.88;;
34317;SDS011;20582;52.196;20.952;2024-01-27T02:19:18;12.00;;;2.88;;
34317;SDS011;20582;52.196;20.952;2024-01-27T02:21:44;17.08;;;3.00;;
34317;SDS011;20582;52.196;20.952;2024-01-27T02:24:10;18.73;;;3.15;;
34317;SDS011;20582;52.196;20.952;2024-01-27T02:26:36;14.18;;;2.90;;
34317;SDS011;20582;52.196;20.952;2024-01-27T02:29:02;13.15;;;2.55;;
34317;SDS011;20582;52.196;20.952;2024-01-27T02:31:28;19.55;;;3.35;;
34317;SDS011;20582;52.196;20.952;2024-01-27T02:33:54;16.20;;;2.90;;
34317;SDS011;20582;52.196;20.952;2024-01-27T02:36:20;21.30;;;2.75;;
34317;SDS011;20582;52.196;20.952;2024-01-27T02:38:46;15.57;;;3.03;;
34317;SDS011;20582;52.196;20.952;2024-01-27T02:41:12;15.00;;;2.45;;
34317;SDS011;20582;52.196;20.952;2024-01-27T02:43:39;19.25;;;2.85;;
34317;SDS011;20582;52.196;20.952;2024-01-27T02:46:08;18.30;;;3.08;;
34317;SDS011;20582;52.196;20.952;2024-01-27T02:48:34;13.27;;;2.75;;
34317;SDS011;20582;52.196;20.952;2024-01-27T02:51:03;20.63;;;3.08;;
34317;SDS011;20582;52.196;20.952;2024-01-27T02:53:29;18.85;;;3.10;;
34317;SDS011;20582;52.196;20.952;2024-01-27T02:55:55;16.98;;;3.53;;
34317;SDS011;20582;52.196;20.952;2024-01-27T02:58:21;16.90;;;2.97;;
34317;SDS011;20582;52.196;20.952;2024-01-27T03:00:47;14.32;;;2.28;;
34317;SDS011;20582;52.196;20.952;2024-01-27T03:03:13;14.10;;;2.90;;
34317;SDS011;20582;52.196;20.952;2024-01-27T03:05:40;14.65;;;2.90;;
34317;SDS011;20582;52.196;20.952;2024-01-27T03:08:06;16.98;;;2.95;;
34317;SDS011;20582;52.196;20.952;2024-01-27T03:10:32;10.10;;;2.75;;
34317;SDS011;20582;52.196;20.952;2024-01-27T03:12:58;21.85;;;3.97;;
34317;SDS011;20582;52.196;20.952;2024-01-27T03:15:24;20.25;;;3.47;;
34317;SDS011;20582;52.196;20.952;2024-01-27T03:17:50;16.92;;;4.43;;
34317;SDS011;20582;52.196;20.952;2024-01-27T03:20:16;20.70;;;3.05;;
34317;SDS011;20582;52.196;20.952;2024-01-27T03:22:42;12.20;;;3.03;;
34317;SDS011;20582;52.196;20.952;2024-01-27T03:25:09;23.42;;;3.60;;
34317;SDS011;20582;52.196;20.952;2024-01-27T03:27:35;22.40;;;3.83;;
34317;SDS011;20582;52.196;20.952;2024-01-27T03:30:02;22.17;;;4.05;;
34317;SDS011;20582;52.196;20.952;2024-01-27T03:32:28;14.85;;;2.97;;
34317;SDS011;20582;52.196;20.952;2024-01-27T03:34:56;15.98;;;3.38;;
34317;SDS011;20582;52.196;20.952;2024-01-27T03:37:22;17.23;;;3.17;;
34317;SDS011;20582;52.196;20.952;2024-01-27T03:39:48;19.30;;;3.45;;
34317;SDS011;20582;52.196;20.952;2024-01-27T03:42:14;17.05;;;2.90;;
34317;SDS011;20582;52.196;20.952;2024-01-27T03:44:40;16.02;;;3.10;;
34317;SDS011;20582;52.196;20.952;2024-01-27T03:47:06;18.95;;;3.35;;
34317;SDS011;20582;52.196;20.952;2024-01-27T03:49:32;18.77;;;3.38;;
34317;SDS011;20582;52.196;20.952;2024-01-27T03:51:58;20.75;;;3.53;;
34317;SDS011;20582;52.196;20.952;2024-01-27T03:54:24;17.95;;;2.60;;
34317;SDS011;20582;52.196;20.952;2024-01-27T03:56:50;25.20;;;3.30;;
34317;SDS011;20582;52.196;20.952;2024-01-27T03:59:16;16.48;;;3.00;;
34317;SDS011;20582;52.196;20.952;2024-01-27T04:01:42;20.40;;;3.88;;
34317;SDS011;20582;52.196;20.952;2024-01-27T04:04:08;13.18;;;3.10;;
34317;SDS011;20582;52.196;20.952;2024-01-27T04:06:38;18.20;;;3.75;;
34317;SDS011;20582;52.196;20.952;2024-01-27T04:09:04;15.35;;;2.70;;
34317;SDS011;20582;52.196;20.952;2024-01-27T04:11:33;16.63;;;3.30;;
34317;SDS011;20582;52.196;20.952;2024-01-27T04:13:59;12.85;;;2.88;;
34317;SDS011;20582;52.196;20.952;2024-01-27T04:16:26;17.90;;;3.10;;
34317;SDS011;20582;52.196;20.952;2024-01-27T04:18:52;10.80;;;2.63;;
34317;SDS011;20582;52.196;20.952;2024-01-27T04:21:19;17.23;;;3.63;;
34317;SDS011;20582;52.196;20.952;2024-01-27T04:23:45;17.13;;;3.53;;
34317;SDS011;20582;52.196;20.952;2024-01-27T04:26:11;14.93;;;3.00;;
34317;SDS011;20582;52.196;20.952;2024-01-27T04:28:37;12.95;;;2.75;;
34317;SDS011;20582;52.196;20.952;2024-01-27T04:31:03;17.63;;;3.38;;
34317;SDS011;20582;52.196;20.952;2024-01-27T04:33:29;15.52;;;3.17;;
34317;SDS011;20582;52.196;20.952;2024-01-27T04:35:55;15.32;;;3.67;;
34317;SDS011;20582;52.196;20.952;2024-01-27T04:38:21;22.80;;;3.70;;
34317;SDS011;20582;52.196;20.952;2024-01-27T04:40:48;12.00;;;3.05;;
34317;SDS011;20582;52.196;20.952;2024-01-27T04:43:17;15.20;;;3.30;;
34317;SDS011;20582;52.196;20.952;2024-01-27T04:45:43;15.55;;;3.20;;
34317;SDS011;20582;52.196;20.952;2024-01-27T04:48:09;13.73;;;3.35;;
34317;SDS011;20582;52.196;20.952;2024-01-27T04:50:35;15.55;;;3.63;;
34317;SDS011;20582;52.196;20.952;2024-01-27T04:53:01;21.90;;;3.47;;
34317;SDS011;20582;52.196;20.952;2024-01-27T04:55:27;22.15;;;3.92;;
34317;SDS011;20582;52.196;20.952;2024-01-27T04:57:53;13.38;;;3.38;;
34317;SDS011;20582;52.196;20.952;2024-01-27T05:00:19;12.10;;;3.35;;
34317;SDS011;20582;52.196;20.952;2024-01-27T05:02:45;22.10;;;3.42;;
34317;SDS011;20582;52.196;20.952;2024-01-27T05:05:11;16.70;;;3.80;;
34317;SDS011;20582;52.196;20.952;2024-01-27T05:07:38;17.90;;;3.67;;
34317;SDS011;20582;52.196;20.952;2024-01-27T05:10:04;20.10;;;4.03;;
34317;SDS011;20582;52.196;20.952;2024-01-27T05:12:30;19.40;;;3.60;;
34317;SDS011;20582;52.196;20.952;2024-01-27T05:14:56;22.17;;;3.80;;
34317;SDS011;20582;52.196;20.952;2024-01-27T05:17:22;25.27;;;3.50;;
34317;SDS011;20582;52.196;20.952;2024-01-27T05:19:51;18.27;;;3.50;;
34317;SDS011;20582;52.196;20.952;2024-01-27T05:22:17;13.52;;;3.42;;
34317;SDS011;20582;52.196;20.952;2024-01-27T05:24:43;20.05;;;3.65;;
34317;SDS011;20582;52.196;20.952;2024-01-27T05:27:09;20.77;;;3.35;;
34317;SDS011;20582;52.196;20.952;2024-01-27T05:29:36;15.70;;;3.47;;
34317;SDS011;20582;52.196;20.952;2024-01-27T05:32:03;15.45;;;3.33;;
34317;SDS011;20582;52.196;20.952;2024-01-27T05:34:29;15.55;;;3.67;;
34317;SDS011;20582;52.196;20.952;2024-01-27T05:36:55;15.30;;;4.03;;
34317;SDS011;20582;52.196;20.952;2024-01-27T05:39:20;18.88;;;3.65;;
34317;SDS011;20582;52.196;20.952;2024-01-27T05:41:46;17.67;;;3.70;;
34317;SDS011;20582;52.196;20.952;2024-01-27T05:44:12;17.63;;;3.33;;
34317;SDS011;20582;52.196;20.952;2024-01-27T05:46:38;21.80;;;3.92;;
34317;SDS011;20582;52.196;20.952;2024-01-27T05:49:04;12.07;;;3.35;;
34317;SDS011;20582;52.196;20.952;2024-01-27T05:51:30;20.63;;;3.50;;
34317;SDS011;20582;52.196;20.952;2024-01-27T05:53:56;19.05;;;3.67;;
34317;SDS011;20582;52.196;20.952;2024-01-27T05:56:22;17.73;;;3.38;;
34317;SDS011;20582;52.196;20.952;2024-01-27T05:58:48;24.05;;;3.80;;
34317;SDS011;20582;52.196;20.952;2024-01-27T06:01:14;18.23;;;3.78;;
34317;SDS011;20582;52.196;20.952;2024-01-27T06:03:41;20.92;;;4.82;;
34317;SDS011;20582;52.196;20.952;2024-01-27T06:06:07;18.85;;;3.60;;
34317;SDS011;20582;52.196;20.952;2024-01-27T06:08:33;18.27;;;4.03;;
34317;SDS011;20582;52.196;20.952;2024-01-27T06:11:00;12.52;;;3.20;;
34317;SDS011;20582;52.196;20.952;2024-01-27T06:13:26;13.35;;;2.78;;
34317;SDS011;20582;52.196;20.952;2024-01-27T06:15:52;15.32;;;3.03;;
34317;SDS011;20582;52.196;20.952;2024-01-27T06:18:17;16.75;;;2.95;;
34317;SDS011;20582;52.196;20.952;2024-01-27T06:20:44;21.75;;;3.80;;
34317;SDS011;20582;52.196;20.952;2024-01-27T06:23:10;22.70;;;3.70;;
34317;SDS011;20582;52.196;20.952;2024-01-27T06:25:36;13.75;;;3.17;;
34317;SDS011;20582;52.196;20.952;2024-01-27T06:28:02;9.23;;;2.53;;
34317;SDS011;20582;52.196;20.952;2024-01-27T06:30:28;23.20;;;4.72;;
34317;SDS011;20582;52.196;20.952;2024-01-27T06:32:54;19.70;;;3.55;;
34317;SDS011;20582;52.196;20.952;2024-01-27T06:35:20;15.95;;;3.30;;
34317;SDS011;20582;52.196;20.952;2024-01-27T06:37:46;18.05;;;3.75;;
34317;SDS011;20582;52.196;20.952;2024-01-27T06:40:12;22.42;;;3.45;;
34317;SDS011;20582;52.196;20.952;2024-01-27T06:42:39;18.90;;;4.05;;
34317;SDS011;20582;52.196;20.952;2024-01-27T06:45:05;20.45;;;3.88;;
34317;SDS011;20582;52.196;20.952;2024-01-27T06:47:31;15.02;;;3.60;;
34317;SDS011;20582;52.196;20.952;2024-01-27T06:49:57;16.88;;;3.50;;
34317;SDS011;20582;52.196;20.952;2024-01-27T06:52:23;27.70;;;5.28;;
34317;SDS011;20582;52.196;20.952;2024-01-27T06:54:49;25.13;;;4.30;;
34317;SDS011;20582;52.196;20.952;2024-01-27T06:57:18;19.73;;;4.15;;
34317;SDS011;20582;52.196;20.952;2024-01-27T06:59:46;22.02;;;3.85;;
34317;SDS011;20582;52.196;20.952;2024-01-27T07:02:13;16.90;;;3.72;;
34317;SDS011;20582;52.196;20.952;2024-01-27T07:04:39;22.73;;;4.07;;
34317;SDS011;20582;52.196;20.952;2024-01-27T07:07:05;25.60;;;4.43;;
34317;SDS011;20582;52.196;20.952;2024-01-27T07:09:31;21.52;;;4.88;;
34317;SDS011;20582;52.196;20.952;2024-01-27T07:11:57;23.63;;;4.43;;
34317;SDS011;20582;52.196;20.952;2024-01-27T07:14:23;20.05;;;4.75;;
34317;SDS011;20582;52.196;20.952;2024-01-27T07:16:49;26.05;;;5.00;;
34317;SDS011;20582;52.196;20.952;2024-01-27T07:19:15;18.17;;;4.53;;
34317;SDS011;20582;52.196;20.952;2024-01-27T07:21:41;18.65;;;4.40;;
34317;SDS011;20582;52.196;20.952;2024-01-27T07:24:07;23.35;;;4.55;;
34317;SDS011;20582;52.196;20.952;2024-01-27T07:26:33;19.05;;;4.75;;
34317;SDS011;20582;52.196;20.952;2024-01-27T07:28:59;20.85;;;5.15;;
34317;SDS011;20582;52.196;20.952;2024-01-27T07:31:25;16.08;;;4.82;;
34317;SDS011;20582;52.196;20.952;2024-01-27T07:33:51;20.27;;;4.57;;
34317;SDS011;20582;52.196;20.952;2024-01-27T07:36:17;21.23;;;5.72;;
34317;SDS011;20582;52.196;20.952;2024-01-27T07:38:43;20.50;;;5.00;;
34317;SDS011;20582;52.196;20.952;2024-01-27T07:41:09;22.85;;;4.90;;
34317;SDS011;20582;52.196;20.952;2024-01-27T07:43:35;23.95;;;5.85;;
34317;SDS011;20582;52.196;20.952;2024-01-27T07:46:01;18.30;;;5.40;;
34317;SDS011;20582;52.196;20.952;2024-01-27T07:48:27;17.65;;;4.82;;
34317;SDS011;20582;52.196;20.952;2024-01-27T07:50:53;17.25;;;5.07;;
34317;SDS011;20582;52.196;20.952;2024-01-27T07:53:21;19.38;;;5.43;;
34317;SDS011;20582;52.196;20.952;2024-01-27T07:55:47;20.85;;;6.60;;
34317;SDS011;20582;52.196;20.952;2024-01-27T07:58:13;18.33;;;5.13;;
34317;SDS011;20582;52.196;20.952;2024-01-27T08:00:39;18.67;;;5.47;;
34317;SDS011;20582;52.196;20.952;2024-01-27T08:03:05;21.45;;;5.55;;
34317;SDS011;20582;52.196;20.952;2024-01-27T08:05:31;15.18;;;5.72;;
34317;SDS011;20582;52.196;20.952;2024-01-27T08:07:57;22.40;;;6.13;;
34317;SDS011;20582;52.196;20.952;2024-01-27T08:10:23;21.85;;;5.80;;
34317;SDS011;20582;52.196;20.952;2024-01-27T08:12:49;21.45;;;5.63;;
34317;SDS011;20582;52.196;20.952;2024-01-27T08:15:14;19.42;;;5.82;;
34317;SDS011;20582;52.196;20.952;2024-01-27T08:17:40;23.25;;;5.95;;
34317;SDS011;20582;52.196;20.952;2024-01-27T08:20:07;22.58;;;6.22;;
34317;SDS011;20582;52.196;20.952;2024-01-27T08:22:33;17.63;;;5.25;;
34317;SDS011;20582;52.196;20.952;2024-01-27T08:24:59;20.05;;;6.15;;
34317;SDS011;20582;52.196;20.952;2024-01-27T08:27:25;22.60;;;6.45;;
34317;SDS011;20582;52.196;20.952;2024-01-27T08:29:51;27.70;;;5.85;;
34317;SDS011;20582;52.196;20.952;2024-01-27T08:32:18;21.67;;;6.20;;
34317;SDS011;20582;52.196;20.952;2024-01-27T08:34:45;23.00;;;6.30;;
34317;SDS011;20582;52.196;20.952;2024-01-27T08:37:17;20.25;;;5.68;;
34317;SDS011;20582;52.196;20.952;2024-01-27T08:42:09;24.55;;;6.28;;
34317;SDS011;20582;52.196;20.952;2024-01-27T08:44:35;18.75;;;5.45;;
34317;SDS011;20582;52.196;20.952;2024-01-27T08:47:01;21.45;;;5.78;;
34317;SDS011;20582;52.196;20.952;2024-01-27T08:49:27;22.73;;;6.30;;
34317;SDS011;20582;52.196;20.952;2024-01-27T08:51:53;22.30;;;6.32;;
34317;SDS011;20582;52.196;20.952;2024-01-27T08:54:20;16.73;;;5.55;;
34317;SDS011;20582;52.196;20.952;2024-01-27T08:56:46;21.00;;;6.47;;
34317;SDS011;20582;52.196;20.952;2024-01-27T08:59:12;22.73;;;6.55;;
34317;SDS011;20582;52.196;20.952;2024-01-27T09:01:38;22.83;;;6.72;;
34317;SDS011;20582;52.196;20.952;2024-01-27T09:04:04;25.25;;;6.53;;
34317;SDS011;20582;52.196;20.952;2024-01-27T09:06:30;18.77;;;6.30;;
34317;SDS011;20582;52.196;20.952;2024-01-27T09:08:56;19.88;;;6.07;;
34317;SDS011;20582;52.196;20.952;2024-01-27T09:11:22;22.98;;;7.30;;
34317;SDS011;20582;52.196;20.952;2024-01-27T09:13:48;22.25;;;7.07;;
34317;SDS011;20582;52.196;20.952;2024-01-27T09:16:16;21.90;;;6.40;;
34317;SDS011;20582;52.196;20.952;2024-01-27T09:18:42;20.20;;;6.57;;
34317;SDS011;20582;52.196;20.952;2024-01-27T09:21:08;21.58;;;6.32;;
34317;SDS011;20582;52.196;20.952;2024-01-27T09:23:34;19.95;;;6.80;;
34317;SDS011;20582;52.196;20.952;2024-01-27T09:26:00;23.48;;;7.10;;
34317;SDS011;20582;52.196;20.952;2024-01-27T09:28:27;19.58;;;6.63;;
34317;SDS011;20582;52.196;20.952;2024-01-27T09:30:52;17.95;;;6.65;;
34317;SDS011;20582;52.196;20.952;2024-01-27T09:33:18;16.40;;;6.20;;
34317;SDS011;20582;52.196;20.952;2024-01-27T09:35:49;20.75;;;6.40;;
34317;SDS011;20582;52.196;20.952;2024-01-27T09:38:15;18.35;;;6.18;;
34317;SDS011;20582;52.196;20.952;2024-01-27T09:40:41;17.45;;;6.07;;
34317;SDS011;20582;52.196;20.952;2024-01-27T09:43:07;14.88;;;5.63;;
34317;SDS011;20582;52.196;20.952;2024-01-27T09:45:39;17.05;;;5.68;;
34317;SDS011;20582;52.196;20.952;2024-01-27T09:48:05;18.80;;;6.28;;
34317;SDS011;20582;52.196;20.952;2024-01-27T09:50:33;15.68;;;5.53;;
34317;SDS011;20582;52.196;20.952;2024-01-27T09:53:00;19.48;;;5.65;;
34317;SDS011;20582;52.196;20.952;2024-01-27T09:55:26;18.25;;;5.47;;
34317;SDS011;20582;52.196;20.952;2024-01-27T09:57:52;15.38;;;5.55;;
34317;SDS011;20582;52.196;20.952;2024-01-27T10:00:18;12.50;;;5.00;;
34317;SDS011;20582;52.196;20.952;2024-01-27T10:02:45;14.43;;;4.93;;
34317;SDS011;20582;52.196;20.952;2024-01-27T10:05:11;12.35;;;5.18;;
34317;SDS011;20582;52.196;20.952;2024-01-27T10:07:39;14.40;;;4.55;;
34317;SDS011;20582;52.196;20.952;2024-01-27T10:10:06;14.73;;;5.30;;
34317;SDS011;20582;52.196;20.952;2024-01-27T10:12:32;14.93;;;5.25;;
34317;SDS011;20582;52.196;20.952;2024-01-27T10:14:58;15.75;;;5.05;;
34317;SDS011;20582;52.196;20.952;2024-01-27T10:17:24;12.57;;;4.90;;
34317;SDS011;20582;52.196;20.952;2024-01-27T10:20:03;13.63;;;5.03;;
34317;SDS011;20582;52.196;20.952;2024-01-27T10:22:39;11.60;;;4.57;;
34317;SDS011;20582;52.196;20.952;2024-01-27T10:25:06;11.88;;;5.00;;
34317;SDS011;20582;52.196;20.952;2024-01-27T10:27:32;10.60;;;4.50;;
34317;SDS011;20582;52.196;20.952;2024-01-27T10:29:59;11.45;;;4.53;;
34317;SDS011;20582;52.196;20.952;2024-01-27T10:32:24;12.07;;;4.82;;
34317;SDS011;20582;52.196;20.952;2024-01-27T10:35:04;12.05;;;4.68;;
34317;SDS011;20582;52.196;20.952;2024-01-27T10:37:30;13.38;;;4.25;;
34317;SDS011;20582;52.196;20.952;2024-01-27T10:40:02;12.07;;;4.20;;
34317;SDS011;20582;52.196;20.952;2024-01-27T10:42:29;10.50;;;4.40;;
34317;SDS011;20582;52.196;20.952;2024-01-27T10:44:57;10.10;;;4.60;;
34317;SDS011;20582;52.196;20.952;2024-01-27T10:47:24;10.93;;;4.53;;
34317;SDS011;20582;52.196;20.952;2024-01-27T10:49:50;10.63;;;4.28;;
34317;SDS011;20582;52.196;20.952;2024-01-27T10:52:17;10.85;;;4.38;;
34317;SDS011;20582;52.196;20.952;2024-01-27T10:54:45;11.13;;;4.18;;
34317;SDS011;20582;52.196;20.952;2024-01-27T10:57:11;9.05;;;4.00;;
34317;SDS011;20582;52.196;20.952;2024-01-27T10:59:37;9.80;;;4.30;;
34317;SDS011;20582;52.196;20.952;2024-01-27T11:02:04;9.20;;;4.28;;
34317;SDS011;20582;52.196;20.952;2024-01-27T11:04:32;9.13;;;4.25;;
34317;SDS011;20582;52.196;20.952;2024-01-27T11:07:00;7.38;;;3.67;;
34317;SDS011;20582;52.196;20.952;2024-01-27T11:09:27;9.50;;;3.30;;
34317;SDS011;20582;52.196;20.952;2024-01-27T11:11:53;7.32;;;3.22;;
34317;SDS011;20582;52.196;20.952;2024-01-27T11:14:19;6.80;;;3.00;;
34317;SDS011;20582;52.196;20.952;2024-01-27T11:16:45;6.32;;;2.80;;
34317;SDS011;20582;52.196;20.952;2024-01-27T11:19:12;8.73;;;3.75;;
34317;SDS011;20582;52.196;20.952;2024-01-27T11:21:38;5.40;;;3.05;;
34317;SDS011;20582;52.196;20.952;2024-01-27T11:26:39;6.68;;;3.42;;
34317;SDS011;20582;52.196;20.952;2024-01-27T11:29:06;7.20;;;3.58;;
34317;SDS011;20582;52.196;20.952;2024-01-27T11:31:34;7.45;;;3.30;;
34317;SDS011;20582;52.196;20.952;2024-01-27T11:34:00;6.18;;;3.25;;
34317;SDS011;20582;52.196;20.952;2024-01-27T11:36:26;6.68;;;3.20;;
34317;SDS011;20582;52.196;20.952;2024-01-27T11:38:53;6.32;;;3.08;;
34317;SDS011;20582;52.196;20.952;2024-01-27T11:41:27;6.90;;;3.50;;
34317;SDS011;20582;52.196;20.952;2024-01-27T11:43:57;6.35;;;3.42;;
34317;SDS011;20582;52.196;20.952;2024-01-27T11:46:25;6.63;;;3.22;;
34317;SDS011;20582;52.196;20.952;2024-01-27T11:48:51;7.28;;;3.45;;
34317;SDS011;20582;52.196;20.952;2024-01-27T11:51:17;6.90;;;3.53;;
34317;SDS011;20582;52.196;20.952;2024-01-27T11:56:14;8.57;;;3.67;;
34317;SDS011;20582;52.196;20.952;2024-01-27T11:58:46;7.32;;;3.70;;
34317;SDS011;20582;52.196;20.952;2024-01-27T12:01:12;7.97;;;3.63;;
34317;SDS011;20582;52.196;20.952;2024-01-27T12:03:38;8.13;;;3.70;;
34317;SDS011;20582;52.196;20.952;2024-01-27T12:06:05;6.90;;;3.47;;
34317;SDS011;20582;52.196;20.952;2024-01-27T12:08:31;7.45;;;3.97;;
34317;SDS011;20582;52.196;20.952;2024-01-27T12:10:57;7.30;;;3.85;;
34317;SDS011;20582;52.196;20.952;2024-01-27T12:13:23;7.18;;;3.60;;
34317;SDS011;20582;52.196;20.952;2024-01-27T12:15:49;6.90;;;3.75;;
34317;SDS011;20582;52.196;20.952;2024-01-27T12:18:15;6.47;;;4.10;;
34317;SDS011;20582;52.196;20.952;2024-01-27T12:20:41;7.53;;;4.03;;
34317;SDS011;20582;52.196;20.952;2024-01-27T12:23:07;7.28;;;4.25;;
34317;SDS011;20582;52.196;20.952;2024-01-27T12:25:33;8.45;;;4.40;;
34317;SDS011;20582;52.196;20.952;2024-01-27T12:28:02;8.20;;;4.30;;
34317;SDS011;20582;52.196;20.952;2024-01-27T12:30:29;7.57;;;4.47;;
34317;SDS011;20582;52.196;20.952;2024-01-27T12:32:54;7.03;;;4.20;;
34317;SDS011;20582;52.196;20.952;2024-01-27T12:35:20;7.95;;;4.65;;
34317;SDS011;20582;52.196;20.952;2024-01-27T12:37:47;7.50;;;4.50;;
34317;SDS011;20582;52.196;20.952;2024-01-27T12:40:19;8.43;;;4.70;;
34317;SDS011;20582;52.196;20.952;2024-01-27T12:42:45;8.88;;;4.53;;
34317;SDS011;20582;52.196;20.952;2024-01-27T12:45:11;8.45;;;4.88;;
34317;SDS011;20582;52.196;20.952;2024-01-27T12:47:38;7.43;;;4.40;;
34317;SDS011;20582;52.196;20.952;2024-01-27T12:50:04;8.30;;;4.72;;
34317;SDS011;20582;52.196;20.952;2024-01-27T12:52:31;9.32;;;4.53;;
34317;SDS011;20582;52.196;20.952;2024-01-27T12:54:57;7.70;;;4.55;;
34317;SDS011;20582;52.196;20.952;2024-01-27T12:57:23;9.80;;;4.70;;
34317;SDS011;20582;52.196;20.952;2024-01-27T12:59:49;9.35;;;4.72;;
34317;SDS011;20582;52.196;20.952;2024-01-27T13:02:15;8.15;;;4.60;;
34317;SDS011;20582;52.196;20.952;2024-01-27T13:04:41;8.20;;;4.47;;
34317;SDS011;20582;52.196;20.952;2024-01-27T13:07:07;7.90;;;4.22;;
34317;SDS011;20582;52.196;20.952;2024-01-27T13:09:34;10.25;;;5.57;;
34317;SDS011;20582;52.196;20.952;2024-01-27T13:12:00;8.50;;;4.43;;
34317;SDS011;20582;52.196;20.952;2024-01-27T13:14:26;7.80;;;4.35;;
34317;SDS011;20582;52.196;20.952;2024-01-27T13:16:52;8.05;;;4.13;;
34317;SDS011;20582;52.196;20.952;2024-01-27T13:19:19;7.30;;;4.30;;
34317;SDS011;20582;52.196;20.952;2024-01-27T13:21:45;6.90;;;4.00;;
34317;SDS011;20582;52.196;20.952;2024-01-27T13:24:11;10.18;;;4.35;;
34317;SDS011;20582;52.196;20.952;2024-01-27T13:26:37;7.93;;;3.97;;
34317;SDS011;20582;52.196;20.952;2024-01-27T13:29:07;7.78;;;3.80;;
34317;SDS011;20582;52.196;20.952;2024-01-27T13:31:33;8.75;;;3.88;;
34317;SDS011;20582;52.196;20.952;2024-01-27T13:33:59;6.85;;;3.63;;
34317;SDS011;20582;52.196;20.952;2024-01-27T13:36:26;8.82;;;4.03;;
34317;SDS011;20582;52.196;20.952;2024-01-27T13:38:52;5.93;;;3.53;;
34317;SDS011;20582;52.196;20.952;2024-01-27T13:41:18;6.85;;;3.65;;
34317;SDS011;20582;52.196;20.952;2024-01-27T13:43:44;6.22;;;3.63;;
34317;SDS011;20582;52.196;20.952;2024-01-27T13:46:10;10.27;;;4.05;;
34317;SDS011;20582;52.196;20.952;2024-01-27T13:48:36;5.90;;;3.50;;
34317;SDS011;20582;52.196;20.952;2024-01-27T13:51:03;7.18;;;3.90;;
34317;SDS011;20582;52.196;20.952;2024-01-27T13:53:29;7.57;;;3.80;;
34317;SDS011;20582;52.196;20.952;2024-01-27T13:55:55;6.13;;;3.58;;
34317;SDS011;20582;52.196;20.952;2024-01-27T13:58:21;6.70;;;3.58;;
34317;SDS011;20582;52.196;20.952;2024-01-27T14:00:47;7.13;;;4.10;;
34317;SDS011;20582;52.196;20.952;2024-01-27T14:03:13;7.00;;;3.65;;
34317;SDS011;20582;52.196;20.952;2024-01-27T14:05:39;7.45;;;3.83;;
34317;SDS011;20582;52.196;20.952;2024-01-27T14:08:07;7.07;;;3.83;;
34317;SDS011;20582;52.196;20.952;2024-01-27T14:10:34;6.93;;;3.35;;
34317;SDS011;20582;52.196;20.952;2024-01-27T14:13:00;7.50;;;3.40;;
34317;SDS011;20582;52.196;20.952;2024-01-27T14:15:29;5.50;;;2.90;;
34317;SDS011;20582;52.196;20.952;2024-01-27T14:17:55;6.15;;;3.05;;
34317;SDS011;20582;52.196;20.952;2024-01-27T14:20:21;5.85;;;2.80;;
34317;SDS011;20582;52.196;20.952;2024-01-27T14:22:47;5.88;;;2.92;;
34317;SDS011;20582;52.196;20.952;2024-01-27T14:25:13;6.22;;;2.70;;
34317;SDS011;20582;52.196;20.952;2024-01-27T14:27:39;5.20;;;3.13;;
34317;SDS011;20582;52.196;20.952;2024-01-27T14:30:05;5.45;;;2.90;;